sim
Sign-in with your pilot id or email,
or register
Callsign
Passwort

Schedule Details

Flight Number: DLH1811
Departure: Barcelona El Prat Airport (LEBL) at 10:40
Arrival: Munich Airport (EDDM) at 12:40
Route: Lufthansa Passenger Schedule. Enter filed route here before submitting Pirep.

Weather Information
Getting current METAR information for LEBL 241200Z 22016KT 9999 FEW030 27/16 Q1010 NOSIG
Getting current METAR information for EDDM 241220Z VRB03KT 9999 FEW033 21/13 Q1009 NOSIG

Schedule Frequency

Route Map